createdAt,value
2023-04-04T00:00:00.798Z,74.77
2023-04-04T00:01:00.795Z,74.87
2023-04-04T00:02:00.774Z,74.98
2023-04-04T00:03:00.852Z,74.87
2023-04-04T00:04:00.817Z,74.66
2023-04-04T00:05:00.724Z,74.56
2023-04-04T00:06:00.721Z,74.77
2023-04-04T00:07:00.692Z,74.38
2023-04-04T00:08:00.688Z,74.56
2023-04-04T00:09:00.677Z,74.80
2023-04-04T00:10:00.659Z,74.91
2023-04-04T00:11:00.652Z,75.22
2023-04-04T00:12:00.644Z,75.53
2023-04-04T00:13:00.627Z,75.74
2023-04-04T00:14:00.702Z,75.53
2023-04-04T00:15:00.617Z,75.32
2023-04-04T00:16:00.584Z,75.43
2023-04-04T00:17:00.570Z,75.29
2023-04-04T00:18:00.556Z,75.12
2023-04-04T00:19:00.543Z,75.18
2023-04-04T00:20:00.521Z,75.74
2023-04-04T00:21:00.506Z,75.39
2023-04-04T00:22:00.496Z,75.32
2023-04-04T00:23:00.494Z,75.63
2023-04-04T00:24:00.469Z,76.06
2023-04-04T00:25:00.461Z,75.74
2023-04-04T00:26:00.451Z,75.67
2023-04-04T00:27:00.435Z,75.88
2023-04-04T00:28:00.487Z,75.46
2023-04-04T00:29:00.405Z,75.57
2023-04-04T00:30:00.392Z,75.98
2023-04-04T00:31:00.404Z,75.15
2023-04-04T00:32:00.387Z,75.04
2023-04-04T00:33:00.411Z,75.04
2023-04-04T00:34:00.334Z,75.04
2023-04-04T00:35:00.321Z,75.04
2023-04-04T00:36:00.366Z,75.36
2023-04-04T00:37:00.306Z,74.84
2023-04-04T00:38:00.297Z,74.63
2023-04-04T00:39:00.275Z,74.21
2023-04-04T00:40:00.319Z,74.31
2023-04-04T00:41:00.262Z,74.21
2023-04-04T00:42:00.244Z,73.55
2023-04-04T00:43:00.233Z,73.16
2023-04-04T00:44:00.204Z,73.27
2023-04-04T00:45:00.196Z,72.85
2023-04-04T00:46:00.248Z,73.16
2023-04-04T00:47:00.191Z,73.06
2023-04-04T00:48:00.215Z,72.75
2023-04-04T00:49:00.145Z,72.85
2023-04-04T00:50:00.162Z,72.96
2023-04-04T00:51:00.125Z,73.90
2023-04-04T00:52:00.121Z,73.69
2023-04-04T00:53:00.176Z,73.69
2023-04-04T00:54:00.099Z,73.79
2023-04-04T00:55:00.065Z,74.42
2023-04-04T00:56:00.057Z,74.35
2023-04-04T00:57:00.037Z,74.55
2023-04-04T00:58:00.029Z,74.31
2023-04-04T00:59:00.031Z,74.35
2023-04-04T00:59:59.991Z,74.66
2023-04-04T01:01:00.030Z,74.55
2023-04-04T01:01:59.966Z,74.35
2023-04-04T01:03:00.007Z,74.76
2023-04-04T01:04:00.198Z,74.87
2023-04-04T01:04:59.941Z,74.35
2023-04-04T01:05:59.913Z,74.55
2023-04-04T01:06:59.934Z,74.55
2023-04-04T01:07:59.894Z,74.04
2023-04-04T01:08:59.867Z,73.61
2023-04-04T01:09:59.857Z,74.17
2023-04-04T01:10:59.838Z,74.04
2023-04-04T01:11:59.839Z,74.38
2023-04-04T01:12:59.821Z,74.45
2023-04-04T01:13:59.806Z,74.38
2023-04-04T01:14:59.791Z,74.27
2023-04-04T01:15:59.779Z,74.38
2023-04-04T01:16:59.882Z,74.80
2023-04-04T01:17:59.774Z,75.11
2023-04-04T01:18:59.773Z,74.59
2023-04-04T01:19:59.727Z,74.41
2023-04-04T01:20:59.708Z,74.84
2023-04-04T01:21:59.695Z,75.04
2023-04-04T01:22:59.684Z,74.73
2023-04-04T01:23:59.675Z,74.31
2023-04-04T01:24:59.652Z,74.41
2023-04-04T01:25:59.641Z,74.31
2023-04-04T01:26:59.622Z,75.57
2023-04-04T01:27:59.616Z,75.25
2023-04-04T01:28:59.614Z,75.35
2023-04-04T01:29:59.593Z,75.49
2023-04-04T01:30:59.652Z,75.60
2023-04-04T01:31:59.571Z,75.81
2023-04-04T01:32:59.708Z,75.49
2023-04-04T01:33:59.537Z,75.08
2023-04-04T01:34:59.543Z,75.18
2023-04-04T01:35:59.531Z,75.49
2023-04-04T01:36:59.493Z,74.97
2023-04-04T01:37:59.502Z,74.97
2023-04-04T01:38:59.476Z,74.97
2023-04-04T01:39:59.457Z,74.66
2023-04-04T01:40:59.442Z,74.45
2023-04-04T01:41:59.449Z,74.10
2023-04-04T01:42:59.426Z,73.68
2023-04-04T01:43:59.406Z,73.47
2023-04-04T01:44:59.393Z,73.58
2023-04-04T01:45:59.412Z,74.10
2023-04-04T01:46:59.360Z,73.79
2023-04-04T01:47:59.391Z,73.37
2023-04-04T01:48:59.337Z,73.16
2023-04-04T01:49:59.325Z,73.19
2023-04-04T01:50:59.331Z,72.95
2023-04-04T01:51:59.291Z,72.53
2023-04-04T01:52:59.288Z,72.53
2023-04-04T01:53:59.278Z,72.64
2023-04-04T01:54:59.260Z,72.85
2023-04-04T01:55:59.263Z,72.11
2023-04-04T01:56:59.231Z,72.56
2023-04-04T01:57:59.225Z,72.53
2023-04-04T01:58:59.260Z,73.05
2023-04-04T01:59:59.201Z,72.67
2023-04-04T02:00:59.179Z,72.32
2023-04-04T02:01:59.175Z,72.11
2023-04-04T02:02:59.247Z,72.74
2023-04-04T02:03:59.163Z,72.64
2023-04-04T02:04:59.424Z,72.74
2023-04-04T02:05:59.111Z,73.16
2023-04-04T02:06:59.131Z,73.30
2023-04-04T02:07:59.091Z,73.16
2023-04-04T02:08:59.088Z,72.56
2023-04-04T02:09:59.063Z,72.35
2023-04-04T02:10:59.054Z,72.46
2023-04-04T02:11:59.033Z,72.25
2023-04-04T02:12:59.015Z,71.69
2023-04-04T02:13:59.000Z,71.59
2023-04-04T02:14:58.994Z,72.14
2023-04-04T02:15:59.004Z,72.01
2023-04-04T02:16:58.962Z,72.35
2023-04-04T02:18:00.620Z,72.01
2023-04-04T02:18:58.936Z,72.46
2023-04-04T02:19:58.919Z,72.14
2023-04-04T02:20:58.903Z,72.22
2023-04-04T02:21:58.892Z,72.11
2023-04-04T02:22:58.902Z,71.62
2023-04-04T02:23:58.874Z,71.28
2023-04-04T02:24:58.859Z,71.24
2023-04-04T02:25:58.844Z,71.38
2023-04-04T02:26:58.830Z,72.11
2023-04-04T02:27:58.828Z,71.90
2023-04-04T02:28:58.805Z,71.80
2023-04-04T02:29:58.792Z,72.32
2023-04-04T02:30:58.819Z,72.53
2023-04-04T02:31:58.767Z,72.53
2023-04-04T02:32:58.760Z,72.67
2023-04-04T02:33:58.734Z,72.53
2023-04-04T02:34:58.916Z,72.88
2023-04-04T02:35:58.739Z,72.56
2023-04-04T02:36:58.699Z,72.88
2023-04-04T02:37:58.700Z,72.77
2023-04-04T02:38:58.691Z,72.77
2023-04-04T02:39:58.653Z,72.98
2023-04-04T02:40:58.644Z,72.98
2023-04-04T02:41:58.644Z,73.30
2023-04-04T02:42:58.617Z,73.50
2023-04-04T02:43:58.605Z,73.30
2023-04-04T02:44:58.589Z,72.88
2023-04-04T02:45:59.747Z,72.67
2023-04-04T02:46:58.603Z,72.77
2023-04-04T02:47:58.571Z,72.88
2023-04-04T02:48:58.540Z,73.50
2023-04-04T02:49:58.530Z,73.72
2023-04-04T02:50:58.511Z,73.75
2023-04-04T02:51:58.501Z,73.40
2023-04-04T02:52:58.487Z,73.30
2023-04-04T02:53:58.472Z,73.09
2023-04-04T02:54:58.484Z,73.44
2023-04-04T02:55:58.453Z,73.44
2023-04-04T02:56:58.436Z,73.33
2023-04-04T02:57:58.426Z,73.50
2023-04-04T02:58:58.426Z,73.40
2023-04-04T02:59:58.390Z,73.40
2023-04-04T03:00:58.391Z,73.30
2023-04-04T03:01:58.408Z,72.98
2023-04-04T03:02:58.507Z,73.09
2023-04-04T03:03:58.409Z,72.98
2023-04-04T03:04:58.330Z,72.88
2023-04-04T03:05:58.311Z,73.22
2023-04-04T03:06:58.300Z,73.22
2023-04-04T03:07:58.356Z,73.09
2023-04-04T03:08:58.273Z,73.33
2023-04-04T03:09:58.261Z,73.12
2023-04-04T03:10:58.273Z,73.33
2023-04-04T03:11:58.232Z,73.33
2023-04-04T03:12:58.317Z,74.06
2023-04-04T03:13:58.200Z,73.96
2023-04-04T03:14:58.198Z,73.75
2023-04-04T03:15:58.172Z,73.65
2023-04-04T03:16:58.425Z,73.54
2023-04-04T03:17:58.204Z,73.44
2023-04-04T03:18:58.142Z,73.65
2023-04-04T03:19:58.126Z,74.06
2023-04-04T03:20:58.120Z,73.96
2023-04-04T03:21:58.104Z,74.38
2023-04-04T03:22:58.085Z,74.27
2023-04-04T03:23:58.079Z,73.96
2023-04-04T03:24:58.050Z,73.85
2023-04-04T03:25:58.039Z,74.58
2023-04-04T03:26:58.052Z,74.24
2023-04-04T03:27:58.010Z,74.06
2023-04-04T03:28:58.005Z,73.75
2023-04-04T03:29:57.986Z,73.96
2023-04-04T03:30:57.972Z,74.17
2023-04-04T03:31:57.996Z,74.06
2023-04-04T03:32:57.988Z,74.06
2023-04-04T03:33:57.938Z,73.96
2023-04-04T03:34:57.913Z,74.38
2023-04-04T03:35:57.934Z,74.27
2023-04-04T03:36:57.889Z,74.17
2023-04-04T03:37:57.874Z,74.48
2023-04-04T03:38:57.863Z,74.48
2023-04-04T03:39:57.847Z,74.58
2023-04-04T03:40:57.839Z,75.01
2023-04-04T03:41:57.821Z,75.01
2023-04-04T03:42:57.840Z,75.46
2023-04-04T03:43:57.795Z,75.21
2023-04-04T03:44:57.779Z,75.32
2023-04-04T03:45:57.852Z,75.01
2023-04-04T03:46:57.763Z,75.11
2023-04-04T03:47:57.776Z,75.63
2023-04-04T03:48:57.747Z,75.32
2023-04-04T03:49:57.713Z,75.21
2023-04-04T03:50:57.702Z,75.01
2023-04-04T03:51:57.685Z,74.90
2023-04-04T03:52:57.673Z,74.90
2023-04-04T03:53:57.668Z,74.58
2023-04-04T03:54:57.644Z,74.69
2023-04-04T03:55:57.635Z,74.80
2023-04-04T03:56:57.622Z,74.90
2023-04-04T03:57:57.606Z,74.90
2023-04-04T03:58:57.656Z,74.90
2023-04-04T03:59:57.614Z,75.01
2023-04-04T04:00:57.558Z,75.04
2023-04-04T04:01:57.544Z,75.11
2023-04-04T04:02:58.102Z,75.21
2023-04-04T04:03:57.535Z,75.53
2023-04-04T04:04:57.513Z,75.88
2023-04-04T04:05:57.491Z,75.78
2023-04-04T04:06:57.502Z,75.78
2023-04-04T04:07:57.465Z,75.74
2023-04-04T04:08:57.456Z,75.78
2023-04-04T04:09:57.684Z,75.78
2023-04-04T04:10:57.432Z,75.78
2023-04-04T04:11:57.415Z,75.84
2023-04-04T04:12:57.400Z,75.95
2023-04-04T04:13:57.389Z,75.98
2023-04-04T04:14:57.399Z,75.98
2023-04-04T04:15:57.411Z,75.98
2023-04-04T04:16:57.341Z,75.84
2023-04-04T04:17:57.374Z,75.78
2023-04-04T04:18:57.314Z,75.88
2023-04-04T04:19:57.307Z,76.19
2023-04-04T04:20:57.301Z,76.19
2023-04-04T04:21:57.279Z,76.30
2023-04-04T04:22:57.265Z,76.30
2023-04-04T04:23:57.251Z,76.40
2023-04-04T04:24:57.268Z,76.51
2023-04-04T04:25:57.223Z,76.61
2023-04-04T04:26:57.211Z,76.51
2023-04-04T04:27:57.208Z,76.43
2023-04-04T04:28:57.433Z,76.40
2023-04-04T04:29:57.170Z,76.43
2023-04-04T04:30:57.179Z,76.61
2023-04-04T04:31:57.291Z,76.82
2023-04-04T04:32:57.173Z,76.82
2023-04-04T04:33:57.115Z,76.75
2023-04-04T04:34:57.107Z,76.51
2023-04-04T04:35:57.504Z,76.72
2023-04-04T04:36:57.076Z,76.82
2023-04-04T04:37:57.059Z,76.75
2023-04-04T04:38:57.050Z,76.61
2023-04-04T04:39:57.037Z,76.82
2023-04-04T04:40:57.027Z,76.51
2023-04-04T04:41:57.020Z,76.72
2023-04-04T04:42:57.004Z,76.72
2023-04-04T04:43:56.985Z,76.65
2023-04-04T04:44:56.975Z,76.72
2023-04-04T04:45:56.964Z,76.82
2023-04-04T04:46:57.028Z,76.72
2023-04-04T04:47:56.966Z,76.82
2023-04-04T04:48:56.995Z,76.72
2023-04-04T04:49:56.896Z,76.93
2023-04-04T04:50:56.888Z,76.82
2023-04-04T04:51:56.872Z,76.93
2023-04-04T04:52:56.866Z,76.82
2023-04-04T04:53:56.851Z,77.03
2023-04-04T04:54:56.840Z,76.82
2023-04-04T04:55:56.835Z,76.61
2023-04-04T04:56:56.811Z,76.82
2023-04-04T04:57:56.797Z,76.75
2023-04-04T04:58:56.805Z,76.82
2023-04-04T04:59:56.768Z,76.93
2023-04-04T05:00:56.798Z,76.82
2023-04-04T05:01:56.779Z,76.82
2023-04-04T05:02:56.898Z,76.82
2023-04-04T05:03:56.716Z,77.24
2023-04-04T05:04:56.702Z,77.17
2023-04-04T05:05:56.680Z,77.38
2023-04-04T05:06:56.679Z,77.38
2023-04-04T05:07:56.665Z,77.28
2023-04-04T05:08:56.652Z,77.34
2023-04-04T05:09:56.631Z,77.03
2023-04-04T05:10:56.618Z,77.34
2023-04-04T05:11:56.624Z,77.14
2023-04-04T05:12:56.592Z,76.93
2023-04-04T05:13:56.572Z,76.82
2023-04-04T05:14:56.561Z,76.82
2023-04-04T05:15:56.557Z,76.82
2023-04-04T05:16:56.674Z,77.00
2023-04-04T05:17:56.539Z,76.82
2023-04-04T05:18:56.526Z,76.93
2023-04-04T05:19:56.534Z,77.10
2023-04-04T05:20:56.483Z,77.52
2023-04-04T05:21:56.479Z,77.45
2023-04-04T05:22:56.458Z,77.34
2023-04-04T05:23:56.472Z,77.14
2023-04-04T05:24:56.426Z,77.24
2023-04-04T05:25:56.411Z,77.24
2023-04-04T05:26:56.399Z,77.24
2023-04-04T05:27:56.386Z,77.34
2023-04-04T05:28:56.376Z,77.56
2023-04-04T05:29:56.361Z,77.56
2023-04-04T05:30:57.410Z,77.34
2023-04-04T05:31:56.385Z,77.45
2023-04-04T05:32:56.407Z,77.31
2023-04-04T05:33:56.306Z,77.17
2023-04-04T05:34:56.314Z,77.20
2023-04-04T05:35:56.488Z,76.96
2023-04-04T05:36:56.270Z,76.23
2023-04-04T05:37:56.253Z,75.70
2023-04-04T05:38:56.240Z,75.46
2023-04-04T05:39:56.227Z,75.67
2023-04-04T05:40:56.210Z,75.63
2023-04-04T05:41:56.191Z,75.32
2023-04-04T05:42:56.182Z,75.01
2023-04-04T05:43:56.171Z,74.55
2023-04-04T05:44:56.162Z,74.14
2023-04-04T05:45:56.185Z,73.61
2023-04-04T05:46:56.133Z,73.69
2023-04-04T05:47:56.158Z,73.27
2023-04-04T05:48:56.110Z,72.50
2023-04-04T05:49:56.095Z,72.36
2023-04-04T05:50:56.102Z,71.70
2023-04-04T05:51:56.138Z,71.04
2023-04-04T05:52:56.140Z,69.97
2023-04-04T05:53:56.032Z,69.42
2023-04-04T05:54:56.020Z,68.66
2023-04-04T05:55:56.005Z,67.82
2023-04-04T05:56:56.000Z,66.68
2023-04-04T05:57:55.986Z,67.38
2023-04-04T05:58:55.982Z,66.59
2023-04-04T05:59:55.956Z,66.69
2023-04-04T06:00:55.943Z,65.31
2023-04-04T06:01:55.928Z,64.69
2023-04-04T06:02:55.984Z,64.76
2023-04-04T06:03:55.908Z,63.82
2023-04-04T06:04:55.887Z,64.21
2023-04-04T06:05:55.966Z,62.96
2023-04-04T06:06:55.883Z,62.73
2023-04-04T06:07:55.856Z,63.01
2023-04-04T06:08:55.840Z,60.96
2023-04-04T06:09:55.820Z,61.69
2023-04-04T06:10:55.809Z,61.71
2023-04-04T06:11:55.797Z,62.21
2023-04-04T06:12:55.786Z,61.76
2023-04-04T06:13:55.778Z,61.32
2023-04-04T06:14:55.757Z,60.88
2023-04-04T06:15:56.189Z,60.12
2023-04-04T06:16:55.811Z,60.02
2023-04-04T06:17:55.758Z,58.64
2023-04-04T06:18:55.699Z,58.62
2023-04-04T06:19:55.707Z,59.00
2023-04-04T06:20:55.670Z,58.87
2023-04-04T06:21:55.659Z,56.10
2023-04-04T06:22:55.664Z,56.96
2023-04-04T06:23:55.632Z,57.89
2023-04-04T06:24:55.652Z,56.44
2023-04-04T06:25:55.606Z,57.45
2023-04-04T06:26:55.801Z,56.39
2023-04-04T06:27:55.585Z,56.26
2023-04-04T06:28:55.567Z,56.75
2023-04-04T06:29:55.554Z,55.69
2023-04-04T06:30:55.536Z,54.55
2023-04-04T06:31:55.595Z,54.74
2023-04-04T06:32:55.553Z,54.06
2023-04-04T06:33:55.490Z,54.89
2023-04-04T06:34:55.482Z,54.27
2023-04-04T06:35:55.494Z,54.38
2023-04-04T06:36:55.459Z,54.38
2023-04-04T06:37:55.863Z,54.55
2023-04-04T06:38:55.504Z,53.91
2023-04-04T06:39:55.417Z,55.13
2023-04-04T06:40:55.405Z,52.95
2023-04-04T06:41:55.381Z,53.86
2023-04-04T06:42:55.386Z,52.70
2023-04-04T06:43:55.351Z,52.39
2023-04-04T06:44:55.358Z,52.50
2023-04-04T06:45:55.325Z,51.36
2023-04-04T06:46:55.388Z,51.46
2023-04-04T06:47:55.347Z,52.60
2023-04-04T06:48:55.290Z,52.26
2023-04-04T06:49:55.279Z,50.80
2023-04-04T06:50:55.261Z,50.82
2023-04-04T06:51:55.307Z,50.43
2023-04-04T06:52:55.283Z,51.65
2023-04-04T06:53:55.223Z,51.42
2023-04-04T06:54:55.237Z,50.34
2023-04-04T06:55:55.200Z,49.93
2023-04-04T06:56:55.180Z,50.11
2023-04-04T06:57:55.182Z,48.85
2023-04-04T06:58:55.176Z,48.93
2023-04-04T06:59:55.143Z,47.80
2023-04-04T07:00:55.170Z,47.72
2023-04-04T07:01:55.147Z,47.62
2023-04-04T07:02:55.112Z,47.08
2023-04-04T07:03:55.091Z,46.98
2023-04-04T07:04:55.072Z,47.67
2023-04-04T07:05:55.065Z,47.24
2023-04-04T07:06:55.040Z,47.53
2023-04-04T07:07:55.032Z,46.87
2023-04-04T07:08:55.050Z,45.97
2023-04-04T07:09:55.006Z,45.74
2023-04-04T07:10:55.051Z,45.54
2023-04-04T07:11:54.977Z,45.33
2023-04-04T07:12:54.986Z,46.15
2023-04-04T07:13:54.949Z,44.62
2023-04-04T07:14:54.941Z,45.04
2023-04-04T07:15:54.930Z,45.36
2023-04-04T07:16:55.189Z,45.89
2023-04-04T07:17:54.962Z,45.27
2023-04-04T07:18:54.883Z,46.22
2023-04-04T07:19:54.867Z,45.56
2023-04-04T07:20:54.853Z,45.36
2023-04-04T07:21:54.847Z,45.21
2023-04-04T07:22:54.835Z,45.68
2023-04-04T07:23:54.815Z,43.10
2023-04-04T07:24:54.797Z,44.32
2023-04-04T07:25:54.786Z,42.79
2023-04-04T07:26:54.815Z,42.36
2023-04-04T07:28:02.362Z,42.48
2023-04-04T07:28:55.800Z,42.30
2023-04-04T07:29:54.763Z,44.12
2023-04-04T07:30:54.726Z,43.57
2023-04-04T07:31:54.749Z,42.50
2023-04-04T07:32:54.746Z,41.97
2023-04-04T07:33:54.778Z,41.50
2023-04-04T07:34:54.666Z,41.89
2023-04-04T07:35:54.747Z,41.59
2023-04-04T07:36:54.645Z,41.67
2023-04-04T07:37:54.626Z,41.06
2023-04-04T07:38:54.619Z,41.14
2023-04-04T07:39:54.601Z,40.20
2023-04-04T07:40:54.579Z,41.63
2023-04-04T07:41:54.571Z,40.01
2023-04-04T07:42:54.578Z,39.85
2023-04-04T07:43:54.539Z,40.13
2023-04-04T07:44:54.522Z,41.77
2023-04-04T07:45:54.572Z,41.75
2023-04-04T07:47:06.181Z,42.14
2023-04-04T07:47:55.595Z,42.94
2023-04-04T07:48:54.480Z,41.96
2023-04-04T07:49:54.517Z,41.61
2023-04-04T07:50:54.448Z,39.47
2023-04-04T07:51:54.426Z,39.69
2023-04-04T07:52:54.461Z,42.34
2023-04-04T07:53:54.404Z,43.12
2023-04-04T07:54:54.537Z,41.63
2023-04-04T07:55:54.377Z,41.47
2023-04-04T07:56:54.362Z,39.42
2023-04-04T07:57:54.347Z,37.80
2023-04-04T07:58:54.370Z,40.14
2023-04-04T07:59:54.420Z,39.43
2023-04-04T08:00:54.311Z,39.23
2023-04-04T08:01:54.311Z,38.01
2023-04-04T08:02:54.386Z,39.51
2023-04-04T08:03:54.446Z,38.68
2023-04-04T08:04:54.414Z,37.85
2023-04-04T08:05:54.242Z,38.75
2023-04-04T08:06:54.224Z,37.85
2023-04-04T08:07:54.210Z,37.63
2023-04-04T08:08:54.200Z,37.54
2023-04-04T08:09:54.533Z,38.12
2023-04-04T08:10:54.181Z,38.21
2023-04-04T08:11:54.165Z,38.74
2023-04-04T08:12:54.144Z,38.64
2023-04-04T08:13:54.130Z,39.31
2023-04-04T08:14:54.146Z,37.95
2023-04-04T08:15:54.139Z,35.83
2023-04-04T08:16:54.089Z,38.09
2023-04-04T08:17:54.094Z,39.11
2023-04-04T08:18:54.067Z,38.80
2023-04-04T08:19:54.053Z,37.58
2023-04-04T08:20:54.037Z,39.76
2023-04-04T08:21:54.025Z,39.14
2023-04-04T08:22:54.032Z,41.81
2023-04-04T08:23:53.986Z,40.17
2023-04-04T08:24:53.974Z,40.03
2023-04-04T08:25:54.012Z,41.10
2023-04-04T08:27:04.522Z,39.33
2023-04-04T08:27:54.959Z,37.31
2023-04-04T08:28:53.923Z,38.01
2023-04-04T08:29:53.925Z,38.01
2023-04-04T08:30:53.931Z,37.77
2023-04-04T08:34:11.573Z,38.21
2023-04-04T08:35:11.556Z,36.19
2023-04-04T08:36:11.542Z,38.96
2023-04-04T08:37:11.525Z,38.23
2023-04-04T08:38:11.520Z,37.99
2023-04-04T08:39:11.493Z,37.65
2023-04-04T08:40:11.480Z,37.73
2023-04-04T08:41:11.480Z,38.02
2023-04-04T08:42:11.460Z,36.69
2023-04-04T08:43:11.438Z,37.90
2023-04-04T08:44:11.428Z,36.24
2023-04-04T08:45:11.415Z,36.66
2023-04-04T08:46:11.745Z,34.05
2023-04-04T08:47:11.448Z,36.92
2023-04-04T08:48:11.384Z,37.97
2023-04-04T08:49:11.370Z,38.45
2023-04-04T08:50:11.353Z,38.78
2023-04-04T08:51:11.347Z,38.85
2023-04-04T08:52:11.326Z,42.02
2023-04-04T08:53:11.313Z,40.36
2023-04-04T08:54:11.513Z,40.26
2023-04-04T08:55:11.300Z,41.02
2023-04-04T08:56:11.272Z,38.50
2023-04-04T08:57:11.260Z,39.99
2023-04-04T08:58:11.393Z,41.69
2023-04-04T08:59:11.342Z,40.90
2023-04-04T09:00:11.563Z,38.42
2023-04-04T09:01:11.252Z,38.49
2023-04-04T09:02:11.245Z,38.67
2023-04-04T09:03:11.214Z,36.71
2023-04-04T09:04:11.175Z,38.04
2023-04-04T09:05:11.305Z,37.21
2023-04-04T09:06:11.143Z,36.85
2023-04-04T09:07:11.136Z,34.33
2023-04-04T09:08:11.123Z,34.91
2023-04-04T09:09:11.102Z,33.38
2023-04-04T09:10:11.099Z,33.31
2023-04-04T09:11:11.305Z,34.83
2023-04-04T09:12:11.060Z,33.65
2023-04-04T09:13:15.991Z,35.16
2023-04-04T09:14:11.035Z,35.22
2023-04-04T09:15:11.028Z,32.79
2023-04-04T09:16:11.042Z,33.80
2023-04-04T09:17:11.046Z,35.25
2023-04-04T09:18:11.076Z,37.23
2023-04-04T09:19:10.983Z,35.49
2023-04-04T09:20:10.956Z,35.85
2023-04-04T09:21:10.943Z,34.72
2023-04-04T09:22:10.931Z,32.92
2023-04-04T09:23:10.912Z,34.34
2023-04-04T09:24:10.904Z,36.04
2023-04-04T09:25:10.888Z,34.39
2023-04-04T09:26:10.871Z,32.99
2023-04-04T09:27:10.875Z,33.95
2023-04-04T09:28:10.841Z,35.26
2023-04-04T09:29:10.833Z,35.39
2023-04-04T09:30:10.814Z,33.65
2023-04-04T09:31:10.801Z,32.34
2023-04-04T09:32:10.878Z,33.19
2023-04-04T09:33:10.774Z,34.53
2023-04-04T09:34:10.792Z,34.14
2023-04-04T09:35:10.750Z,33.78
2023-04-04T09:36:10.768Z,34.88
2023-04-04T09:37:10.719Z,34.73
2023-04-04T09:38:10.712Z,34.54
2023-04-04T09:39:10.692Z,36.43
2023-04-04T09:40:10.704Z,36.07
2023-04-04T09:41:10.672Z,34.91
2023-04-04T09:42:10.661Z,34.19
2023-04-04T09:43:10.640Z,34.17
2023-04-04T09:44:10.629Z,32.86
2023-04-04T09:45:13.256Z,32.28
2023-04-04T09:46:11.674Z,33.75
2023-04-04T09:47:13.611Z,34.97
2023-04-04T09:48:10.621Z,35.05
2023-04-04T09:49:13.107Z,35.63
2023-04-04T09:50:10.573Z,33.77
2023-04-04T09:51:10.528Z,33.13
2023-04-04T09:52:10.536Z,33.49
2023-04-04T09:53:10.504Z,31.16
2023-04-04T09:54:18.778Z,32.59
2023-04-04T09:55:11.530Z,33.58
2023-04-04T09:56:10.467Z,30.68
2023-04-04T09:57:10.465Z,31.76
2023-04-04T09:58:10.440Z,31.76
2023-04-04T09:59:10.511Z,33.84
2023-04-04T10:00:10.422Z,33.40
2023-04-04T10:01:10.438Z,30.47
2023-04-04T10:02:10.393Z,32.71
2023-04-04T10:03:10.376Z,31.80
2023-04-04T10:04:10.452Z,32.50
2023-04-04T10:05:10.426Z,30.41
2023-04-04T10:06:10.366Z,31.81
2023-04-04T10:07:10.320Z,31.35
2023-04-04T10:08:10.307Z,32.38
2023-04-04T10:09:10.309Z,33.04
2023-04-04T10:10:10.294Z,31.52
2023-04-04T10:11:12.331Z,32.23
2023-04-04T10:12:10.258Z,34.44
2023-04-04T10:13:10.244Z,33.60
2023-04-04T10:14:10.225Z,32.62
2023-04-04T10:15:10.214Z,31.78
2023-04-04T10:16:10.259Z,31.55
2023-04-04T10:17:10.420Z,32.07
2023-04-04T10:18:10.177Z,30.09
2023-04-04T10:19:10.161Z,32.45
2023-04-04T10:20:10.179Z,32.57
2023-04-04T10:21:15.281Z,33.15
2023-04-04T10:22:10.155Z,31.78
2023-04-04T10:23:10.101Z,32.68
2023-04-04T10:24:10.356Z,30.46
2023-04-04T10:25:10.076Z,30.66
2023-04-04T10:26:10.124Z,31.43
2023-04-04T10:27:10.048Z,31.15
2023-04-04T10:28:10.040Z,29.95
2023-04-04T10:29:10.030Z,31.38
2023-04-04T10:30:10.027Z,31.26
2023-04-04T10:31:10.063Z,31.05
2023-04-04T10:32:10.014Z,30.76
2023-04-04T10:33:10.072Z,30.57
2023-04-04T10:34:09.975Z,30.68
2023-04-04T10:35:09.948Z,31.01
2023-04-04T10:36:09.984Z,32.28
2023-04-04T10:37:12.833Z,34.63
2023-04-04T10:38:09.954Z,34.34
2023-04-04T10:39:09.907Z,34.55
2023-04-04T10:40:09.882Z,34.91
2023-04-04T10:41:09.866Z,32.82
2023-04-04T10:42:09.854Z,31.68
2023-04-04T10:43:09.842Z,30.77
2023-04-04T10:44:09.831Z,31.29
2023-04-04T10:45:19.809Z,31.68
2023-04-04T10:46:10.849Z,31.26
2023-04-04T10:47:09.787Z,32.07
2023-04-04T10:48:10.653Z,30.21
2023-04-04T10:49:09.763Z,33.69
2023-04-04T10:50:09.747Z,34.21
2023-04-04T10:51:09.733Z,35.78
2023-04-04T10:52:09.724Z,34.54
2023-04-04T10:53:09.731Z,35.69
2023-04-04T10:54:09.713Z,37.45
2023-04-04T10:55:09.682Z,36.83
2023-04-04T10:56:09.776Z,36.56
2023-04-04T10:57:09.653Z,38.56
2023-04-04T10:58:09.645Z,40.33
2023-04-04T10:59:09.662Z,38.61
2023-04-04T11:00:09.696Z,39.14
2023-04-04T11:01:09.645Z,40.78
2023-04-04T11:02:09.588Z,41.50
2023-04-04T11:03:09.679Z,39.80
2023-04-04T11:04:09.579Z,40.16
2023-04-04T11:05:09.543Z,39.12
2023-04-04T11:06:09.534Z,37.35
2023-04-04T11:07:09.529Z,39.32
2023-04-04T11:08:09.909Z,38.83
2023-04-04T11:09:09.514Z,38.85
2023-04-04T11:10:09.553Z,39.14
2023-04-04T11:11:21.831Z,39.34
2023-04-04T11:12:10.480Z,38.93
2023-04-04T11:13:13.261Z,39.03
2023-04-04T11:14:10.867Z,38.34
2023-04-04T11:15:09.412Z,38.73
2023-04-04T11:16:09.420Z,39.12
2023-04-04T11:17:09.385Z,37.67
2023-04-04T11:18:22.257Z,37.33
2023-04-04T11:19:10.391Z,37.65
2023-04-04T11:20:09.341Z,34.55
2023-04-04T11:21:09.686Z,33.63
2023-04-04T11:22:09.315Z,34.05
2023-04-04T11:23:09.305Z,34.05
2023-04-04T11:24:09.287Z,35.00
2023-04-04T11:25:09.274Z,32.53
2023-04-04T11:26:09.306Z,31.70
2023-04-04T11:27:09.256Z,31.49
2023-04-04T11:28:09.242Z,31.45
2023-04-04T11:29:09.223Z,33.40
2023-04-04T11:30:09.216Z,33.67
2023-04-04T11:31:09.191Z,32.17
2023-04-04T11:32:09.232Z,33.45
2023-04-04T11:33:09.247Z,31.58
2023-04-04T11:34:09.159Z,30.19
2023-04-04T11:35:09.139Z,31.45
2023-04-04T11:36:09.187Z,31.12
2023-04-04T11:37:09.311Z,30.93
2023-04-04T11:38:09.097Z,32.74
2023-04-04T11:39:09.087Z,33.18
2023-04-04T11:40:09.086Z,30.98
2023-04-04T11:41:09.208Z,31.06
2023-04-04T11:42:09.078Z,31.38
2023-04-04T11:43:09.033Z,31.06
2023-04-04T11:44:09.180Z,30.15
2023-04-04T11:45:09.005Z,31.68
2023-04-04T11:46:09.110Z,31.73
2023-04-04T11:47:08.983Z,31.67
2023-04-04T11:48:08.968Z,30.31
2023-04-04T11:49:08.951Z,29.07
2023-04-04T11:50:08.937Z,28.09
2023-04-04T11:51:08.929Z,27.06
2023-04-04T11:52:09.004Z,29.15
2023-04-04T11:53:08.901Z,30.68
2023-04-04T11:54:08.886Z,30.60
2023-04-04T11:55:08.871Z,30.32
2023-04-04T11:56:08.859Z,32.48
2023-04-04T11:57:08.842Z,32.98
2023-04-04T11:58:11.337Z,32.74
2023-04-04T11:59:11.758Z,31.80
2023-04-04T12:00:08.824Z,30.08
2023-04-04T12:01:08.793Z,28.77
2023-04-04T12:02:08.811Z,31.41
2023-04-04T12:03:08.886Z,29.74
2023-04-04T12:04:08.756Z,30.41
2023-04-04T12:05:08.884Z,30.30
2023-04-04T12:06:08.822Z,28.80
2023-04-04T12:07:08.712Z,30.05
2023-04-04T12:08:08.764Z,30.16
2023-04-04T12:09:08.690Z,30.29
2023-04-04T12:10:08.871Z,30.90
2023-04-04T12:11:08.661Z,31.38
2023-04-04T12:12:08.656Z,30.38
2023-04-04T12:13:08.633Z,29.70
2023-04-04T12:14:08.643Z,30.10
2023-04-04T12:15:16.895Z,31.71
2023-04-04T12:16:09.684Z,31.58
2023-04-04T12:17:08.634Z,29.97
2023-04-04T12:18:08.674Z,30.89
2023-04-04T12:19:08.548Z,31.38
2023-04-04T12:20:08.551Z,30.54
2023-04-04T12:21:08.533Z,29.86
2023-04-04T12:22:08.641Z,30.76
2023-04-04T12:23:08.537Z,30.12
2023-04-04T12:24:08.489Z,29.93
2023-04-04T12:25:08.467Z,30.76
2023-04-04T12:26:08.466Z,30.66
2023-04-04T12:27:08.457Z,30.94
2023-04-04T12:28:08.514Z,30.74
2023-04-04T12:29:08.431Z,30.43
2023-04-04T12:30:08.433Z,29.17
2023-04-04T12:31:08.452Z,30.60
2023-04-04T12:32:08.379Z,30.09
2023-04-04T12:33:08.414Z,29.89
2023-04-04T12:34:08.350Z,30.48
2023-04-04T12:35:08.356Z,30.15
2023-04-04T12:36:08.396Z,29.85
2023-04-04T12:37:08.307Z,30.07
2023-04-04T12:38:08.494Z,30.38
2023-04-04T12:39:08.275Z,30.70
2023-04-04T12:40:08.273Z,30.99
2023-04-04T12:41:08.261Z,30.66
2023-04-04T12:42:08.247Z,29.96
2023-04-04T12:43:08.285Z,30.98
2023-04-04T12:44:08.218Z,29.67
2023-04-04T12:45:08.208Z,31.07
2023-04-04T12:48:29.289Z,30.57
2023-04-04T12:49:29.259Z,29.44
2023-04-04T12:50:29.247Z,29.15
2023-04-04T12:51:29.230Z,29.89
2023-04-04T12:52:29.222Z,30.12
2023-04-04T12:53:29.983Z,31.63
2023-04-04T12:54:29.258Z,31.61
2023-04-04T12:55:29.182Z,31.38
2023-04-04T12:56:29.211Z,30.68